createdAt,value
2023-04-13T00:02:10.007Z,99429.44
2023-04-13T00:04:36.430Z,99427.44
2023-04-13T00:07:02.789Z,99435.63
2023-04-13T00:09:29.778Z,99437.44
2023-04-13T00:11:56.217Z,99416.88
2023-04-13T00:14:22.560Z,99427.03
2023-04-13T00:16:51.148Z,99426.00
2023-04-13T00:19:17.473Z,99417.66
2023-04-13T00:21:43.773Z,99423.41
2023-04-13T00:24:10.261Z,99423.84
2023-04-13T00:26:36.640Z,99401.47
2023-04-13T00:29:02.973Z,99408.03
2023-04-13T00:31:29.319Z,99409.81
2023-04-13T00:33:55.864Z,99405.63
2023-04-13T00:36:22.420Z,99410.63
2023-04-13T00:38:48.684Z,99405.06
2023-04-13T00:41:15.030Z,99399.66
2023-04-13T00:43:41.294Z,99405.78
2023-04-13T00:46:07.738Z,99401.81
2023-04-13T00:48:34.983Z,99388.66
2023-04-13T00:51:02.355Z,99398.38
2023-04-13T00:53:28.783Z,99381.81
2023-04-13T00:55:56.180Z,99374.81
2023-04-13T00:58:22.578Z,99380.03
2023-04-13T01:00:48.932Z,99371.84
2023-04-13T01:03:15.275Z,99386.56
2023-04-13T01:05:49.077Z,99386.97
2023-04-13T01:08:38.043Z,99383.16
2023-04-13T01:11:11.515Z,99378.78
2023-04-13T01:13:45.362Z,99372.16
2023-04-13T01:16:30.660Z,99370.34
2023-04-13T01:18:57.338Z,99368.41
2023-04-13T01:21:27.994Z,99359.22
2023-04-13T01:24:09.452Z,99368.97
2023-04-13T01:27:03.493Z,99359.63
2023-04-13T01:29:31.358Z,99361.00
2023-04-13T01:31:58.425Z,99361.44
2023-04-13T01:34:25.238Z,99362.44
2023-04-13T01:36:51.733Z,99355.66
2023-04-13T01:39:19.430Z,99363.41
2023-04-13T01:41:45.998Z,99363.47
2023-04-13T01:44:12.652Z,99359.50
2023-04-13T01:46:44.107Z,99375.22
2023-04-13T01:49:10.552Z,99358.66
2023-04-13T01:51:37.051Z,99376.00
2023-04-13T01:54:13.287Z,99360.06
2023-04-13T01:56:40.510Z,99361.66
2023-04-13T01:59:07.355Z,99379.44
2023-04-13T02:01:34.039Z,99377.44
2023-04-13T02:04:00.776Z,99369.03
2023-04-13T02:06:27.284Z,99380.81
2023-04-13T02:08:53.530Z,99390.16
2023-04-13T02:11:19.984Z,99380.19
2023-04-13T02:13:46.354Z,99371.41
2023-04-13T02:16:12.704Z,99382.56
2023-04-13T02:18:39.123Z,99375.19
2023-04-13T02:21:06.303Z,99377.00
2023-04-13T02:23:32.634Z,99368.59
2023-04-13T02:25:58.932Z,99379.38
2023-04-13T02:28:26.174Z,99373.00
2023-04-13T02:30:52.538Z,99375.41
2023-04-13T02:33:18.886Z,99376.59
2023-04-13T02:35:45.166Z,99382.97
2023-04-13T02:38:11.668Z,99380.97
2023-04-13T02:40:38.073Z,99393.13
2023-04-13T02:43:04.476Z,99389.09
2023-04-13T02:45:30.859Z,99388.13
2023-04-13T02:47:57.254Z,99388.66
2023-04-13T02:50:23.640Z,99392.59
2023-04-13T02:52:50.153Z,99400.56
2023-04-13T02:55:16.724Z,99394.59
2023-04-13T02:57:43.070Z,99396.63
2023-04-13T03:00:09.550Z,99412.34
2023-04-13T03:02:36.656Z,99391.00
2023-04-13T03:05:04.809Z,99406.56
2023-04-13T03:07:34.719Z,99403.94
2023-04-13T03:10:01.096Z,99419.50
2023-04-13T03:12:27.419Z,99428.47
2023-04-13T03:14:53.658Z,99439.25
2023-04-13T03:17:20.046Z,99426.50
2023-04-13T03:19:46.923Z,99435.88
2023-04-13T03:22:13.323Z,99437.72
2023-04-13T03:24:39.674Z,99440.91
2023-04-13T03:27:05.917Z,99452.47
2023-04-13T03:29:32.276Z,99445.53
2023-04-13T03:31:58.608Z,99462.88
2023-04-13T03:34:24.842Z,99464.69
2023-04-13T03:36:51.167Z,99458.31
2023-04-13T03:39:17.444Z,99468.09
2023-04-13T03:41:43.849Z,99472.13
2023-04-13T03:44:10.208Z,99474.13
2023-04-13T03:46:36.563Z,99474.94
2023-04-13T03:49:06.593Z,99476.75
2023-04-13T03:51:32.953Z,99485.19
2023-04-13T03:53:59.372Z,99494.22
2023-04-13T03:56:25.925Z,99498.06
2023-04-13T03:58:55.719Z,99506.50
2023-04-13T04:01:23.285Z,99508.19
2023-04-13T04:03:49.764Z,99509.19
2023-04-13T04:06:16.196Z,99494.66
2023-04-13T04:08:42.526Z,99515.22
2023-04-13T04:11:08.820Z,99523.06
2023-04-13T04:13:35.124Z,99521.50
2023-04-13T04:16:01.440Z,99524.13
2023-04-13T04:18:30.454Z,99531.97
2023-04-13T04:20:56.801Z,99530.56
2023-04-13T04:23:23.097Z,99533.16
2023-04-13T04:25:49.470Z,99537.56
2023-04-13T04:28:15.720Z,99541.00
2023-04-13T04:30:42.010Z,99536.59
2023-04-13T04:33:08.271Z,99542.41
2023-04-13T04:35:34.627Z,99540.63
2023-04-13T04:38:01.104Z,99558.00
2023-04-13T04:40:27.423Z,99560.59
2023-04-13T04:42:53.731Z,99566.75
2023-04-13T04:45:20.407Z,99552.97
2023-04-13T04:47:46.821Z,99572.75
2023-04-13T04:50:13.356Z,99567.56
2023-04-13T04:52:40.840Z,99569.13
2023-04-13T04:55:07.770Z,99572.13
2023-04-13T04:57:34.182Z,99579.09
2023-04-13T05:00:00.734Z,99586.31
2023-04-13T05:02:28.059Z,99583.47
2023-04-13T05:04:54.680Z,99588.47
2023-04-13T05:07:21.364Z,99580.69
2023-04-13T05:09:47.802Z,99594.88
2023-04-13T05:12:14.173Z,99586.25
2023-04-13T05:14:40.386Z,99601.03
2023-04-13T05:17:06.716Z,99602.59
2023-04-13T05:19:33.032Z,99609.38
2023-04-13T05:21:59.735Z,99626.59
2023-04-13T05:24:26.077Z,99604.97
2023-04-13T05:27:01.317Z,99618.28
2023-04-13T05:29:27.731Z,99623.03
2023-04-13T05:31:54.121Z,99622.72
2023-04-13T05:34:20.676Z,99629.69
2023-04-13T05:36:46.882Z,99639.34
2023-04-13T05:39:13.249Z,99634.03
2023-04-13T05:41:39.598Z,99633.47
2023-04-13T05:44:05.934Z,99642.06
2023-04-13T05:46:32.315Z,99643.84
2023-04-13T05:48:58.849Z,99652.81
2023-04-13T05:51:25.620Z,99653.66
2023-04-13T05:53:51.953Z,99660.63
2023-04-13T05:56:18.339Z,99662.63
2023-04-13T05:58:44.779Z,99672.41
2023-04-13T06:01:11.122Z,99663.63
2023-04-13T06:03:37.782Z,99669.91
2023-04-13T06:06:04.662Z,99675.72
2023-04-13T06:08:31.047Z,99677.53
2023-04-13T06:10:57.367Z,99690.28
2023-04-13T06:13:23.732Z,99683.84
2023-04-13T06:15:50.156Z,99696.09
2023-04-13T06:18:16.617Z,99697.03
2023-04-13T06:20:43.000Z,99703.38
2023-04-13T06:23:09.540Z,99706.03
2023-04-13T06:25:36.023Z,99711.41
2023-04-13T06:28:02.588Z,99705.09
2023-04-13T06:30:29.029Z,99724.72
2023-04-13T06:32:55.543Z,99729.44
2023-04-13T06:35:22.110Z,99735.97
2023-04-13T06:37:48.575Z,99729.31
2023-04-13T06:40:15.407Z,99728.13
2023-04-13T06:42:42.647Z,99739.22
2023-04-13T06:45:10.059Z,99739.00
2023-04-13T06:47:37.428Z,99745.88
2023-04-13T06:50:05.485Z,99742.81
2023-04-13T06:52:35.482Z,99753.00
2023-04-13T06:55:02.552Z,99748.59
2023-04-13T06:57:30.009Z,99753.84
2023-04-13T06:59:56.517Z,99758.06
2023-04-13T07:02:22.969Z,99758.91
2023-04-13T07:04:49.453Z,99760.53
2023-04-13T07:07:15.899Z,99762.56
2023-04-13T07:09:42.279Z,99763.72
2023-04-13T07:12:08.638Z,99771.50
2023-04-13T07:14:36.277Z,99761.38
2023-04-13T07:17:03.025Z,99768.94
2023-04-13T07:19:34.053Z,99774.75
2023-04-13T07:22:02.960Z,99787.72
2023-04-13T07:24:30.231Z,99784.91
2023-04-13T07:26:57.390Z,99790.13
2023-04-13T07:29:26.851Z,99781.28
2023-04-13T07:31:59.267Z,99788.63
2023-04-13T07:34:25.673Z,99774.66
2023-04-13T07:36:52.008Z,99799.97
2023-04-13T07:39:19.393Z,99810.75
2023-04-13T07:41:45.752Z,99794.06
2023-04-13T07:44:12.139Z,99804.22
2023-04-13T07:46:38.568Z,99830.28
2023-04-13T07:49:05.013Z,99832.41
2023-04-13T07:51:31.454Z,99832.88
2023-04-13T07:53:57.856Z,99836.22
2023-04-13T07:56:24.213Z,99850.88
2023-04-13T07:58:50.612Z,99860.59
2023-04-13T08:01:17.021Z,99855.66
2023-04-13T08:03:43.474Z,99863.78
2023-04-13T08:06:10.620Z,99876.06
2023-04-13T08:08:37.270Z,99862.97
2023-04-13T08:11:03.954Z,99867.19
2023-04-13T08:13:30.601Z,99887.91
2023-04-13T08:15:57.656Z,99883.53
2023-04-13T08:18:24.311Z,99891.56
2023-04-13T08:20:50.643Z,99883.31
2023-04-13T08:23:16.994Z,99883.69
2023-04-13T08:25:43.353Z,99888.44
2023-04-13T08:28:09.823Z,99894.06
2023-04-13T08:30:36.250Z,99899.06
2023-04-13T08:33:03.035Z,99898.34
2023-04-13T08:35:29.440Z,99900.13
2023-04-13T08:37:55.840Z,99911.19
2023-04-13T08:40:22.407Z,99902.81
2023-04-13T08:42:48.821Z,99912.00
2023-04-13T08:45:15.614Z,99902.28
2023-04-13T08:47:42.479Z,99907.19
2023-04-13T08:50:09.801Z,99899.63
2023-04-13T08:52:36.505Z,99914.50
2023-04-13T08:55:03.076Z,99912.34
2023-04-13T08:57:30.457Z,99919.66
2023-04-13T08:59:58.062Z,99911.72
2023-04-13T09:02:31.927Z,99927.34
2023-04-13T09:05:00.914Z,99918.16
2023-04-13T09:07:32.365Z,99923.00
2023-04-13T09:10:00.186Z,99923.41
2023-04-13T09:12:28.121Z,99926.34
2023-04-13T09:14:54.570Z,99928.72
2023-04-13T09:17:27.823Z,99943.22
2023-04-13T09:20:10.977Z,99955.97
2023-04-13T09:22:37.423Z,99946.19
2023-04-13T09:25:04.096Z,99960.34
2023-04-13T09:27:30.764Z,99961.72
2023-04-13T09:29:57.220Z,99982.06
2023-04-13T09:32:25.608Z,99967.13
2023-04-13T09:35:02.232Z,99988.25
2023-04-13T09:37:28.564Z,99984.34
2023-04-13T09:39:54.984Z,99993.00
2023-04-13T09:42:21.338Z,100003.91
2023-04-13T09:44:57.984Z,99998.69
2023-04-13T09:47:24.571Z,100006.47
2023-04-13T09:49:51.040Z,100010.72
2023-04-13T09:52:23.941Z,100017.31
2023-04-13T09:54:55.122Z,100030.41
2023-04-13T09:57:30.233Z,100026.09
2023-04-13T09:59:58.227Z,100036.75
2023-04-13T10:02:25.645Z,100036.81
2023-04-13T10:04:52.949Z,100048.25
2023-04-13T10:07:19.635Z,100053.66
2023-04-13T10:09:46.041Z,100054.03
2023-04-13T10:12:14.662Z,100061.06
2023-04-13T10:14:43.624Z,100060.94
2023-04-13T10:17:36.161Z,100060.34
2023-04-13T10:20:05.905Z,100057.50
2023-04-13T10:22:32.290Z,100070.91
2023-04-13T10:24:58.664Z,100075.06
2023-04-13T10:27:28.007Z,100075.69
2023-04-13T10:29:54.348Z,100081.09
2023-04-13T10:32:27.958Z,100089.25
2023-04-13T10:34:55.202Z,100081.44
2023-04-13T10:37:27.738Z,100086.59
2023-04-13T10:40:05.382Z,100088.00
2023-04-13T10:45:18.562Z,100094.25
2023-04-13T10:47:45.036Z,100084.28
2023-04-13T10:50:19.435Z,100090.66
2023-04-13T10:53:00.060Z,100105.84
2023-04-13T10:55:27.053Z,100099.28
2023-04-13T10:57:57.843Z,100122.84
2023-04-13T11:00:34.713Z,100109.75
2023-04-13T11:03:09.040Z,100112.75
2023-04-13T11:05:35.768Z,100126.34
2023-04-13T11:08:02.548Z,100126.72
2023-04-13T11:10:29.278Z,100128.50
2023-04-13T11:12:57.498Z,100137.88
2023-04-13T11:15:28.941Z,100147.38
2023-04-13T11:18:00.767Z,100146.66
2023-04-13T11:20:34.038Z,100149.44
2023-04-13T11:23:01.724Z,100143.59
2023-04-13T11:28:09.113Z,100151.97
2023-04-13T11:30:35.510Z,100137.47
2023-04-13T11:33:01.880Z,100147.81
2023-04-13T11:35:28.306Z,100143.94
2023-04-13T11:37:55.947Z,100170.63
2023-04-13T11:40:26.554Z,100170.53
2023-04-13T11:42:54.898Z,100169.78
2023-04-13T11:45:29.021Z,100172.88
2023-04-13T11:47:57.159Z,100172.69
2023-04-13T11:50:24.282Z,100182.41
2023-04-13T11:52:54.271Z,100168.28
2023-04-13T11:55:23.799Z,100176.31
2023-04-13T11:57:52.152Z,100172.72
2023-04-13T12:00:23.020Z,100162.66
2023-04-13T12:03:01.246Z,100171.97
2023-04-13T12:05:31.542Z,100194.38
2023-04-13T12:07:59.780Z,100196.50
2023-04-13T12:10:39.148Z,100205.03
2023-04-13T12:15:50.880Z,100216.63
2023-04-13T12:18:31.137Z,100228.72
2023-04-13T12:21:02.964Z,100226.56
2023-04-13T12:23:29.512Z,100244.34
2023-04-13T12:25:57.626Z,100232.72
2023-04-13T12:28:34.796Z,100251.59
2023-04-13T12:31:09.192Z,100247.63
2023-04-13T12:33:36.399Z,100248.91
2023-04-13T12:36:03.229Z,100248.41
2023-04-13T12:38:30.592Z,100258.06
2023-04-13T12:41:01.852Z,100254.47
2023-04-13T12:43:28.480Z,100269.63
2023-04-13T12:45:55.687Z,100272.91
2023-04-13T12:48:22.539Z,100283.22
2023-04-13T12:50:49.400Z,100279.13
2023-04-13T12:53:16.018Z,100283.34
2023-04-13T12:55:42.939Z,100290.06
2023-04-13T12:58:10.524Z,100278.47
2023-04-13T13:00:37.021Z,100284.22
2023-04-13T13:03:13.585Z,100293.22
2023-04-13T13:05:41.371Z,100301.59
2023-04-13T13:08:07.728Z,100295.00
2023-04-13T13:10:35.807Z,100318.09
2023-04-13T13:13:02.120Z,100304.78
2023-04-13T13:15:28.558Z,100312.44
2023-04-13T13:17:54.906Z,100304.94
2023-04-13T13:20:21.510Z,100315.06
2023-04-13T13:22:47.903Z,100324.41
2023-04-13T13:25:14.371Z,100310.56
2023-04-13T13:28:10.441Z,100333.22
2023-04-13T13:30:27.032Z,100338.22
2023-04-13T13:32:53.412Z,100331.50
2023-04-13T13:35:19.806Z,100329.78
2023-04-13T13:37:46.405Z,100329.91
2023-04-13T13:40:13.151Z,100330.94
2023-04-13T13:42:50.641Z,100323.41
2023-04-13T13:45:18.467Z,100328.59
2023-04-13T13:47:49.700Z,100333.50
2023-04-13T13:50:16.198Z,100339.44
2023-04-13T13:52:55.300Z,100323.06
2023-04-13T13:55:28.420Z,100333.69
2023-04-13T13:57:54.777Z,100332.53
2023-04-13T14:00:21.244Z,100339.78
2023-04-13T14:02:47.721Z,100343.69
2023-04-13T14:05:14.280Z,100341.00
2023-04-13T14:07:44.639Z,100354.88
2023-04-13T14:10:11.619Z,100358.47
2023-04-13T14:12:40.507Z,100372.09
2023-04-13T14:15:10.652Z,100366.16
2023-04-13T14:17:37.122Z,100365.72
2023-04-13T14:20:04.533Z,100373.16
2023-04-13T14:22:30.915Z,100362.28
2023-04-13T14:24:58.836Z,100359.31
2023-04-13T14:27:25.166Z,100377.84
2023-04-13T14:29:51.491Z,100374.75
2023-04-13T14:32:17.834Z,100391.94
2023-04-13T14:34:44.152Z,100378.84
2023-04-13T14:37:10.723Z,100393.69
2023-04-13T14:39:37.082Z,100401.56
2023-04-13T14:42:03.590Z,100398.31
2023-04-13T14:44:29.963Z,100415.97
2023-04-13T14:46:56.460Z,100421.31
2023-04-13T14:49:22.929Z,100418.84
2023-04-13T14:51:49.252Z,100424.00
2023-04-13T14:54:15.592Z,100424.78
2023-04-13T14:56:43.226Z,100429.75
2023-04-13T14:59:09.663Z,100430.84
2023-04-13T15:01:36.159Z,100427.19
2023-04-13T15:04:03.223Z,100436.22
2023-04-13T15:06:29.735Z,100433.41
2023-04-13T15:08:56.100Z,100437.88
2023-04-13T15:11:22.461Z,100431.81
2023-04-13T15:13:49.120Z,100434.53
2023-04-13T15:16:15.531Z,100448.19
2023-04-13T15:18:41.916Z,100441.25
2023-04-13T15:21:08.314Z,100449.09
2023-04-13T15:23:35.093Z,100447.78
2023-04-13T15:26:01.442Z,100447.00
2023-04-13T15:28:27.848Z,100463.47
2023-04-13T15:30:54.307Z,100459.13
2023-04-13T15:33:20.663Z,100441.63
2023-04-13T15:35:47.034Z,100450.38
2023-04-13T15:38:13.428Z,100454.59
2023-04-13T15:40:39.767Z,100455.25
2023-04-13T15:43:06.179Z,100461.53
2023-04-13T15:45:32.656Z,100460.91
2023-04-13T15:47:59.226Z,100474.88
2023-04-13T15:50:25.685Z,100469.38
2023-04-13T15:52:52.030Z,100470.41
2023-04-13T15:55:18.395Z,100479.91
2023-04-13T15:57:44.710Z,100484.53
2023-04-13T16:00:11.536Z,100490.19
2023-04-13T16:02:38.520Z,100475.06
2023-04-13T16:05:05.193Z,100491.16
2023-04-13T16:07:31.499Z,100487.78
2023-04-13T16:09:57.808Z,100482.41
2023-04-13T16:12:25.427Z,100490.44
2023-04-13T16:14:53.054Z,100489.75
2023-04-13T16:17:19.413Z,100494.56
2023-04-13T16:19:45.767Z,100487.59
2023-04-13T16:22:12.408Z,100495.81
2023-04-13T16:24:39.532Z,100499.47
2023-04-13T16:27:05.901Z,100496.63
2023-04-13T16:29:32.329Z,100506.81
2023-04-13T16:31:58.698Z,100504.06
2023-04-13T16:34:26.862Z,100513.91
2023-04-13T16:36:53.583Z,100512.56
2023-04-13T16:39:20.045Z,100517.22
2023-04-13T16:41:46.389Z,100518.13
2023-04-13T16:44:12.703Z,100522.72
2023-04-13T16:46:39.096Z,100513.56
2023-04-13T16:49:05.520Z,100520.66
2023-04-13T16:51:31.955Z,100520.88
2023-04-13T16:53:59.958Z,100523.47
2023-04-13T16:56:29.791Z,100527.47
2023-04-13T16:58:56.273Z,100527.56
2023-04-13T17:01:22.740Z,100543.13
2023-04-13T17:03:49.239Z,100532.22
2023-04-13T17:06:15.613Z,100535.16
2023-04-13T17:08:41.961Z,100543.72
2023-04-13T17:11:08.351Z,100545.59
2023-04-13T17:13:36.489Z,100551.84
2023-04-13T17:16:03.305Z,100557.38
2023-04-13T17:18:29.658Z,100556.06
2023-04-13T17:20:56.532Z,100569.00
2023-04-13T17:23:23.556Z,100574.91
2023-04-13T17:25:53.275Z,100570.38
2023-04-13T17:28:22.312Z,100589.41
2023-04-13T17:30:48.660Z,100583.41
2023-04-13T17:33:15.790Z,100592.31
2023-04-13T17:35:42.158Z,100595.25
2023-04-13T17:38:08.582Z,100595.72
2023-04-13T17:40:35.222Z,100596.22
2023-04-13T17:43:01.640Z,100606.19
2023-04-13T17:45:28.047Z,100593.25
2023-04-13T17:47:54.482Z,100602.00
2023-04-13T17:50:20.848Z,100601.88
2023-04-13T17:52:47.176Z,100612.84
2023-04-13T17:55:13.657Z,100622.16
2023-04-13T17:57:39.989Z,100626.25
2023-04-13T18:00:08.185Z,100630.28
2023-04-13T18:02:34.639Z,100635.19
2023-04-13T18:05:01.070Z,100631.81
2023-04-13T18:07:27.403Z,100640.13
2023-04-13T18:09:53.809Z,100641.16
2023-04-13T18:12:20.136Z,100625.09
2023-04-13T18:14:46.462Z,100648.84
2023-04-13T18:17:12.838Z,100652.28
2023-04-13T18:19:39.204Z,100653.91
2023-04-13T18:22:05.546Z,100654.50
2023-04-13T18:24:31.936Z,100655.50
2023-04-13T18:26:58.281Z,100654.50
2023-04-13T18:29:24.611Z,100669.94
2023-04-13T18:31:50.990Z,100666.72
2023-04-13T18:34:17.360Z,100669.13
2023-04-13T18:36:43.721Z,100663.84
2023-04-13T18:39:10.111Z,100681.53
2023-04-13T18:41:36.691Z,100665.97
2023-04-13T18:44:03.289Z,100683.41
2023-04-13T18:46:30.077Z,100682.34
2023-04-13T18:48:56.420Z,100672.59
2023-04-13T18:51:22.797Z,100688.78
2023-04-13T18:53:49.203Z,100701.56
2023-04-13T18:56:15.567Z,100697.03
2023-04-13T18:58:41.890Z,100690.72
2023-04-13T19:01:16.178Z,100687.81
2023-04-13T19:03:42.740Z,100716.31
2023-04-13T19:06:09.850Z,100716.31
2023-04-13T19:08:36.216Z,100723.53
2023-04-13T19:11:02.555Z,100717.69
2023-04-13T19:13:28.933Z,100719.44
2023-04-13T19:15:57.471Z,100721.41
2023-04-13T19:18:24.067Z,100718.31
2023-04-13T19:20:50.404Z,100721.47
2023-04-13T19:23:16.801Z,100728.59
2023-04-13T19:25:43.102Z,100727.63
2023-04-13T19:28:09.475Z,100738.03
2023-04-13T19:30:35.863Z,100736.16
2023-04-13T19:33:02.278Z,100731.63
2023-04-13T19:35:29.082Z,100735.16
2023-04-13T19:37:55.432Z,100729.78
2023-04-13T19:40:21.906Z,100745.50
2023-04-13T19:42:48.244Z,100738.34
2023-04-13T19:45:15.222Z,100741.38
2023-04-13T19:47:42.240Z,100750.25
2023-04-13T19:50:11.284Z,100752.78
2023-04-13T19:52:38.533Z,100752.13
2023-04-13T19:55:05.330Z,100758.69
2023-04-13T19:57:31.665Z,100756.88
2023-04-13T19:59:57.883Z,100767.66
2023-04-13T20:02:24.444Z,100762.22
2023-04-13T20:04:50.903Z,100759.31
2023-04-13T20:07:17.923Z,100760.22
2023-04-13T20:09:44.766Z,100773.00
2023-04-13T20:12:11.261Z,100769.84
2023-04-13T20:14:37.608Z,100783.03
2023-04-13T20:17:03.824Z,100780.13
2023-04-13T20:19:30.158Z,100769.81
2023-04-13T20:21:56.564Z,100769.03
2023-04-13T20:24:22.871Z,100763.69
2023-04-13T20:26:49.132Z,100781.53
2023-04-13T20:29:15.458Z,100781.09
2023-04-13T20:31:41.714Z,100783.53
2023-04-13T20:34:08.148Z,100798.66
2023-04-13T20:36:34.526Z,100798.84
2023-04-13T20:39:00.862Z,100806.81
2023-04-13T20:41:30.112Z,100794.53
2023-04-13T20:43:56.493Z,100813.53
2023-04-13T20:46:22.782Z,100818.56
2023-04-13T20:48:49.288Z,100816.47
2023-04-13T20:51:15.707Z,100816.84
2023-04-13T20:53:41.962Z,100846.97
2023-04-13T20:56:08.342Z,100853.16
2023-04-13T20:58:34.735Z,100855.06
2023-04-13T21:01:01.186Z,100854.88
2023-04-13T21:03:27.863Z,100861.81
2023-04-13T21:05:54.281Z,100860.94
2023-04-13T21:08:20.694Z,100860.22
2023-04-13T21:10:47.007Z,100859.66
2023-04-13T21:13:13.236Z,100843.38
2023-04-13T21:15:39.558Z,100829.16
2023-04-13T21:18:05.801Z,100844.59
2023-04-13T21:20:32.223Z,100799.59
2023-04-13T21:22:58.638Z,100801.56
2023-04-13T21:25:25.816Z,100778.16
2023-04-13T21:27:52.261Z,100792.53
2023-04-13T21:30:18.599Z,100793.09
2023-04-13T21:32:45.010Z,100813.66
2023-04-13T21:35:11.499Z,100825.50
2023-04-13T21:37:37.822Z,100813.81
2023-04-13T21:40:04.309Z,100831.03
2023-04-13T21:42:30.644Z,100823.78
2023-04-13T21:44:57.141Z,100831.41
2023-04-13T21:47:23.625Z,100846.94
2023-04-13T21:49:49.969Z,100857.19
2023-04-13T21:52:16.281Z,100859.63
2023-04-13T21:54:42.611Z,100857.53
2023-04-13T21:57:08.832Z,100857.06
2023-04-13T21:59:35.259Z,100846.84
2023-04-13T22:02:01.644Z,100864.41
2023-04-13T22:04:28.263Z,100859.13
2023-04-13T22:06:54.737Z,100855.59
2023-04-13T22:09:21.088Z,100857.25
2023-04-13T22:11:47.385Z,100868.66
2023-04-13T22:14:13.757Z,100860.59
2023-04-13T22:16:40.104Z,100860.66
2023-04-13T22:19:06.368Z,100861.50
2023-04-13T22:21:34.706Z,100859.81
2023-04-13T22:24:01.074Z,100866.53
2023-04-13T22:26:27.550Z,100867.56
2023-04-13T22:28:53.881Z,100869.84
2023-04-13T22:31:20.181Z,100868.13
2023-04-13T22:33:46.638Z,100868.78
2023-04-13T22:36:17.218Z,100871.88
2023-04-13T22:38:43.608Z,100861.41
2023-04-13T22:41:09.992Z,100868.22
2023-04-13T22:43:36.288Z,100863.06
2023-04-13T22:46:02.892Z,100867.00
2023-04-13T22:48:29.699Z,100866.34
2023-04-13T22:50:57.016Z,100860.53
2023-04-13T22:53:23.434Z,100844.84
2023-04-13T22:55:49.800Z,100853.91
2023-04-13T22:58:16.150Z,100864.59
2023-04-13T23:00:42.387Z,100869.66
2023-04-13T23:03:08.810Z,100851.53
2023-04-13T23:05:35.360Z,100862.72
2023-04-13T23:08:01.768Z,100856.03
2023-04-13T23:10:28.059Z,100860.78
2023-04-13T23:12:54.425Z,100865.47
2023-04-13T23:15:20.677Z,100863.53
2023-04-13T23:17:47.036Z,100845.41
2023-04-13T23:20:13.391Z,100859.16
2023-04-13T23:22:39.762Z,100864.03
2023-04-13T23:25:06.186Z,100866.63
2023-04-13T23:27:32.510Z,100856.72
2023-04-13T23:29:58.840Z,100873.75
2023-04-13T23:32:25.183Z,100862.41
2023-04-13T23:34:51.476Z,100867.41
2023-04-13T23:37:17.914Z,100862.72
2023-04-13T23:39:44.161Z,100865.63
2023-04-13T23:42:10.537Z,100859.78
2023-04-13T23:44:36.816Z,100869.34
2023-04-13T23:47:03.398Z,100864.44
2023-04-13T23:49:29.733Z,100879.03
2023-04-13T23:51:56.087Z,100867.34
2023-04-13T23:54:22.376Z,100874.75
2023-04-13T23:56:48.702Z,100870.69
2023-04-13T23:59:15.087Z,100873.56
